METAR Data
IDs: Format: Raw Decoded Include TAF

Data at: 2211 UTC 25 Oct 2021

PAII 252156Z AUTO 33009G18KT 260V010 9SM -SN BKN016 OVC023 00/M03 A2922 RMK AO2 UPB12E33SNB17E31B33 SLP894 P0000 T00001033 FZRANO
PAII 252056Z AUTO 36011G19KT 280V020 10SM OVC021 M01/M03 A2922 RMK AO2 SLP892 T10061033 53007 FZRANO
PAII 252024Z AUTO 35009G18KT 250V040 10SM FEW012 BKN019 OVC110 M01/M03 A2921 RMK AO2 FZRANO
PAII 251956Z AUTO 02011G20KT 10SM SCT012 BKN045 OVC110 M01/M03 A2921 RMK AO2 SLP889 T10061033 FZRANO
PAII 251939Z AUTO 01013G19KT 350V070 10SM SCT012 OVC045 M01/M03 A2921 RMK AO2 FZRANO
PAII 251856Z AUTO 36010G17KT 320V030 10SM BKN012 OVC041 M01/M03 A2920 RMK AO2 SLP887 T10111033 FZRANO
PAII 251756Z AUTO 36011G18KT 300V040 9SM BKN012 OVC040 M02/M03 A2920 RMK AO2 SNE52 SLP885 P0000 60000 T10171033 11011 21022 51002 FZRANO
PAII 251747Z AUTO 36010G22KT 310V030 9SM -SN BKN012 OVC038 M02/M03 A2920 RMK AO2 P0000 FZRANO
PAII 251723Z AUTO 35009G18KT 300V010 9SM -SN SCT012 SCT025 OVC040 M02/M03 A2920 RMK AO2 P0000 FZRANO
PAII 251716Z AUTO 36008G18KT 300V100 9SM -SN SCT010 BKN025 OVC040 M02/M03 A2920 RMK AO2 P0000 FZRANO
PAII 251656Z AUTO 35007G17KT 250V030 9SM -SN BKN010 OVC044 M02/M03 A2920 RMK AO2 SLP885 P0000 T10171028 FZRANO
PAII 251621Z AUTO 01008G19KT 250V110 9SM -SN FEW010 SCT023 OVC039 M02/M03 A2919 RMK AO2 P0000 FZRANO
PAII 251614Z AUTO 01012G24KT 300V040 9SM -SN SCT010 BKN023 OVC039 M02/M03 A2919 RMK AO2 P0000 FZRANO
PAII 251556Z AUTO 33007G19KT 200V050 9SM -SN BKN010 OVC037 M02/M03 A2919 RMK AO2 SNB31 SLP883 P0000 T10171028 FZRANO
PAII 251551Z AUTO 01011G19KT 320V030 9SM -SN BKN010 OVC032 M02/M03 A2919 RMK AO2 SNB31 P0000 FZRANO
PAII 251256Z AUTO 01009G17KT 340V050 10SM FEW008 OVC040 M02/M03 A2920 RMK AO2 SLP888 T10171033 FZRANO
PAII 251203Z AUTO 01009G17KT 310V150 10SM FEW008 OVC040 M02/M03 A2922 RMK AO2 FZRANO
PAII 251156Z AUTO 02009G18KT 280V050 10SM OVC040 M02/M03 A2922 RMK AO2 SLP892 T10171028 11006 21017 58009 FZRANO
PAII 251056Z AUTO 01008G21KT 290V070 10SM FEW007 OVC038 M01/M02 A2923 RMK AO2 SLP897 T10111022 FZRANO
PAII 251029Z AUTO 03008G18KT 230V200 10SM SCT007 OVC040 M01/M02 A2924 RMK AO2 FZRANO
PAII 250956Z AUTO VRB04KT 10SM BKN007 OVC040 M01/M02 A2925 RMK AO2 SLP902 T10111022 FZRANO
PAII 250953Z AUTO VRB06G16KT 10SM BKN007 OVC042 M01/M02 A2925 RMK AO2 FZRANO
PAII 250926Z AUTO 02009G16KT 10SM SCT007 OVC042 M01/M02 A2925 RMK AO2 FZRANO
PAII 250919Z AUTO 02007G16KT 240V090 10SM BKN007 OVC042 M01/M02 A2925 RMK AO2 FZRANO
PAII 250856Z AUTO 03010G18KT 010V090 10SM FEW007 OVC042 M01/M02 A2926 RMK AO2 SLP905 T10061017 400331011 56022 FZRANO
PAII 250818Z AUTO 02009G16KT 280V050 10SM SCT005 OVC044 M01/M02 A2927 RMK AO2 FZRANO
PAII 250756Z AUTO 03007G17KT 320V130 10SM OVC005 M01/M02 A2927 RMK AO2 SLP911 T10061017 FZRANO
PAII 250656Z AUTO VRB06KT 10SM OVC005 M01/M02 A2930 RMK AO2 SLP919 T10061017 FZRANO
PAII 250556Z AUTO 03007KT 260V150 10SM OVC005 M01/M02 A2932 RMK AO2 SLP927 T10061017 10028 21006 56021 FZRANO
PAII 250545Z AUTO 00000KT 10SM OVC005 M01/M02 A2932 RMK AO2 FZRANO
PAII 250456Z AUTO VRB04KT 10SM OVC007 00/M02 A2934 RMK AO2 SLP932 T00001017 FZRANO
PAII 250356Z AUTO VRB03KT 10SM OVC009 00/M02 A2936 RMK AO2 SLP942 T00001017 FZRANO
PAII 250337Z AUTO VRB04KT 10SM OVC009 00/M02 A2937 RMK AO2 FZRANO
PAII 250256Z AUTO VRB03KT 10SM OVC011 01/M01 A2938 RMK AO2 SLP948 T00061011 58028 FZRANO
PAII 250156Z AUTO 00000KT 10SM OVC011 01/M01 A2941 RMK AO2 SLP958 T00111011 FZRANO
PAII 250056Z AUTO 00000KT OVC013 02/M01 A2944 RMK AO2 SLP967 T00221006 PWINO FZRANO $
PAII 250032Z AUTO VRB03KT BKN013 OVC046 02/M01 A2945 RMK AO2 PWINO FZRANO $
PAII 242356Z AUTO VRB03KT BKN015 OVC046 03/M01 A2947 RMK AO2 SLP976 T00281006 10033 20022 58019 PWINO $
PAII 242256Z AUTO VRB03KT 10SM FEW015 OVC046 03/M01 A2949 RMK AO2 SLP984 T00281011
PAII 242156Z AUTO VRB03KT 10SM FEW038 OVC046 03/M01 A2950 RMK AO2 SLP989 T00281011
PAII 242056Z AUTO VRB03KT OVC034 02/M01 A2952 RMK AO2 SLP995 T00221006 58004 PWINO FZRANO $
PAII 241956Z AUTO VRB04KT OVC034 02/M01 A2953 RMK AO2 SLP998 T00221011 PWINO FZRANO $
PAII 241856Z AUTO VRB04KT OVC036 02/M01 A2953 RMK AO2 SLP999 T00221011 PWINO FZRANO $
PAII 241756Z AUTO VRB04KT OVC038 02/M01 A2953 RMK AO2 SLP000 T00221011 10028 20017 50001 PWINO FZRANO $
PAII 241656Z AUTO VRB05KT SCT028 OVC041 02/M02 A2954 RMK AO2 SLP001 T00221017 PWINO FZRANO $
PAII 241556Z AUTO VRB05KT OVC037 02/M01 A2955 RMK AO2 SLP005 T00221011 PWINO FZRANO $
PAII 241456Z AUTO 23006KT BKN037 OVC100 02/M02 A2953 RMK AO2 SLP999 T00221017 51015 PWINO FZRANO $
PAII 241356Z AUTO 25007KT OVC035 03/M01 A2952 RMK AO2 SLP994 T00281011 PWINO $
PAII 241256Z AUTO 25007KT 10SM FEW033 OVC100 02/M02 A2951 RMK AO2 SLP992 T00221017 FZRANO
PAII 241156Z AUTO 26008KT 10SM SCT100 02/M01 A2949 RMK AO2 SLP983 T00221011 10022 20006 51023 FZRANO
PAII 241056Z AUTO 27008KT 10SM FEW110 02/M02 A2947 RMK AO2 SLP977 T00171017 FZRANO